createdAt,value
2022-07-29T00:04:14.413Z,15.60
2022-07-29T00:09:50.439Z,15.60
2022-07-29T00:15:13.293Z,15.40
2022-07-29T00:20:35.141Z,15.30
2022-07-29T00:25:56.978Z,15.20
2022-07-29T00:31:18.888Z,15.10
2022-07-29T00:36:40.715Z,15.00
2022-07-29T00:42:02.562Z,15.00
2022-07-29T00:47:24.415Z,15.00
2022-07-29T00:52:46.244Z,15.00
2022-07-29T00:58:08.082Z,15.10
2022-07-29T01:03:29.954Z,15.20
2022-07-29T01:08:51.788Z,15.20
2022-07-29T01:14:13.966Z,15.00
2022-07-29T01:19:36.037Z,15.00
2022-07-29T01:24:57.866Z,14.80
2022-07-29T01:30:19.701Z,14.70
2022-07-29T01:35:45.228Z,14.60
2022-07-29T01:41:07.073Z,14.40
2022-07-29T01:46:28.956Z,14.20
2022-07-29T01:51:50.808Z,14.10
2022-07-29T01:57:12.658Z,14.00
2022-07-29T02:02:34.519Z,13.90
2022-07-29T02:07:56.358Z,13.80
2022-07-29T02:13:18.191Z,13.70
2022-07-29T02:18:40.019Z,13.60
2022-07-29T02:24:01.886Z,13.60
2022-07-29T02:29:23.719Z,13.70
2022-07-29T02:34:45.557Z,13.90
2022-07-29T02:40:07.407Z,14.00
2022-07-29T02:45:29.251Z,14.10
2022-07-29T02:50:51.097Z,14.20
2022-07-29T02:56:12.933Z,14.20
2022-07-29T03:01:34.830Z,14.10
2022-07-29T03:06:56.696Z,14.20
2022-07-29T03:12:18.522Z,14.10
2022-07-29T03:17:40.372Z,14.10
2022-07-29T03:23:02.222Z,14.00
2022-07-29T03:28:24.071Z,13.90
2022-07-29T03:33:48.790Z,13.90
2022-07-29T03:39:10.624Z,13.90
2022-07-29T03:44:32.467Z,13.90
2022-07-29T03:49:54.310Z,13.90
2022-07-29T03:55:16.180Z,13.90
2022-07-29T04:00:38.021Z,13.90
2022-07-29T04:05:59.857Z,13.90
2022-07-29T04:11:21.700Z,14.00
2022-07-29T04:16:43.538Z,14.10
2022-07-29T04:22:05.391Z,14.30
2022-07-29T04:27:27.252Z,14.40
2022-07-29T04:32:49.086Z,14.50
2022-07-29T04:38:15.915Z,14.80
2022-07-29T04:43:39.120Z,15.00
2022-07-29T04:49:01.391Z,15.40
2022-07-29T04:54:23.288Z,15.70
2022-07-29T04:59:45.117Z,16.20
2022-07-29T05:05:06.957Z,16.70
2022-07-29T05:10:28.799Z,17.10
2022-07-29T05:15:50.684Z,17.50
2022-07-29T05:21:12.578Z,17.90
2022-07-29T05:26:34.429Z,18.00
2022-07-29T05:31:56.420Z,18.00
2022-07-29T05:37:18.284Z,18.00
2022-07-29T05:42:40.137Z,18.00
2022-07-29T05:48:01.986Z,18.20
2022-07-29T05:53:23.821Z,18.90
2022-07-29T05:58:45.662Z,19.50
2022-07-29T06:04:07.564Z,19.80
2022-07-29T06:09:29.414Z,19.90
2022-07-29T06:14:54.219Z,20.20
2022-07-29T06:20:16.221Z,20.70
2022-07-29T06:25:38.064Z,20.70
2022-07-29T06:30:59.955Z,21.30
2022-07-29T06:36:22.930Z,22.10
2022-07-29T06:41:46.911Z,23.10
2022-07-29T06:47:08.731Z,23.00
2022-07-29T06:52:30.554Z,22.80
2022-07-29T06:57:53.138Z,22.70
2022-07-29T07:03:15.041Z,23.10
2022-07-29T07:08:36.876Z,22.90
2022-07-29T07:14:02.921Z,22.70
2022-07-29T07:19:25.905Z,23.30
2022-07-29T07:24:47.747Z,23.80
2022-07-29T07:30:09.564Z,24.00
2022-07-29T07:35:31.392Z,24.50
2022-07-29T07:40:53.296Z,25.10
2022-07-29T07:46:15.238Z,25.20
2022-07-29T07:51:37.094Z,24.90
2022-07-29T07:56:58.946Z,24.80
2022-07-29T08:02:20.959Z,24.70
2022-07-29T08:07:42.897Z,24.90
2022-07-29T08:13:04.732Z,25.50
2022-07-29T08:18:26.601Z,26.10
2022-07-29T08:23:51.679Z,26.20
2022-07-29T08:29:19.930Z,26.40
2022-07-29T08:34:42.117Z,26.50
2022-07-29T08:40:03.969Z,26.60
2022-07-29T08:45:25.889Z,26.60
2022-07-29T08:50:47.782Z,26.90
2022-07-29T08:56:10.912Z,27.00
2022-07-29T09:01:36.048Z,27.20
2022-07-29T09:07:04.141Z,27.40
2022-07-29T09:12:29.420Z,27.60
2022-07-29T09:17:51.855Z,27.90
2022-07-29T09:23:13.690Z,27.90
2022-07-29T09:28:46.239Z,27.90
2022-07-29T09:34:08.102Z,27.90
2022-07-29T09:39:29.952Z,27.90
2022-07-29T09:44:51.796Z,28.00
2022-07-29T09:50:13.639Z,28.30
2022-07-29T09:55:35.498Z,28.50
2022-07-29T10:00:57.870Z,28.90
2022-07-29T10:06:19.906Z,29.10
2022-07-29T10:11:49.825Z,29.10
2022-07-29T10:17:11.823Z,29.50
2022-07-29T10:22:52.479Z,29.90
2022-07-29T10:28:16.724Z,29.80
2022-07-29T10:33:38.857Z,29.60
2022-07-29T10:39:00.736Z,29.70
2022-07-29T10:44:25.176Z,29.50
2022-07-29T10:49:47.017Z,29.60
2022-07-29T10:55:10.061Z,29.70
2022-07-29T11:00:31.971Z,29.90
2022-07-29T11:05:53.810Z,30.30
2022-07-29T11:11:17.462Z,30.70
2022-07-29T11:16:39.370Z,30.50
2022-07-29T11:22:01.320Z,30.30
2022-07-29T11:27:23.311Z,30.10
2022-07-29T11:32:50.463Z,30.10
2022-07-29T11:38:12.325Z,29.70
2022-07-29T11:43:34.342Z,29.20
2022-07-29T11:48:56.847Z,28.90
2022-07-29T11:54:18.995Z,29.30
2022-07-29T11:59:49.488Z,29.20
2022-07-29T12:05:12.587Z,29.00
2022-07-29T12:10:34.440Z,28.90
2022-07-29T12:15:56.399Z,28.90
2022-07-29T12:21:25.715Z,28.90
2022-07-29T12:26:47.753Z,28.70
2022-07-29T12:32:14.964Z,28.70
2022-07-29T12:37:42.595Z,28.40
2022-07-29T12:43:04.642Z,28.70
2022-07-29T12:48:26.468Z,28.90
2022-07-29T12:53:48.309Z,29.10
2022-07-29T12:59:10.143Z,29.10
2022-07-29T13:04:31.975Z,29.10
2022-07-29T13:09:53.801Z,28.80
2022-07-29T13:15:15.656Z,29.10
2022-07-29T13:20:37.636Z,29.00
2022-07-29T13:25:59.480Z,29.10
2022-07-29T13:31:21.309Z,28.80
2022-07-29T13:36:43.128Z,28.70
2022-07-29T13:42:07.926Z,28.50
2022-07-29T13:47:33.418Z,28.40
2022-07-29T13:52:55.317Z,28.40
2022-07-29T13:58:17.160Z,28.80
2022-07-29T14:03:39.008Z,29.20
2022-07-29T14:09:00.839Z,29.20
2022-07-29T14:14:22.666Z,29.30
2022-07-29T14:19:44.501Z,29.30
2022-07-29T14:25:14.229Z,29.30
2022-07-29T14:30:36.633Z,29.30
2022-07-29T14:36:01.212Z,29.10
2022-07-29T14:41:23.223Z,28.70
2022-07-29T14:46:45.078Z,28.60
2022-07-29T14:52:10.435Z,28.50
2022-07-29T14:57:32.284Z,28.10
2022-07-29T15:03:02.720Z,27.90
2022-07-29T15:08:24.927Z,27.70
2022-07-29T15:13:46.785Z,27.60
2022-07-29T15:19:08.629Z,27.50
2022-07-29T15:24:30.462Z,27.40
2022-07-29T15:29:53.349Z,27.60
2022-07-29T15:35:15.184Z,27.80
2022-07-29T15:40:37.034Z,27.80
2022-07-29T15:45:58.964Z,27.80
2022-07-29T15:51:20.835Z,27.80
2022-07-29T15:56:42.666Z,27.50
2022-07-29T16:02:04.506Z,27.30
2022-07-29T16:07:31.786Z,27.20
2022-07-29T16:12:54.608Z,27.10
2022-07-29T16:18:16.434Z,27.00
2022-07-29T16:23:38.254Z,27.10
2022-07-29T16:29:00.079Z,27.20
2022-07-29T16:34:21.899Z,27.10
2022-07-29T16:39:43.726Z,27.00
2022-07-29T16:45:05.559Z,26.90
2022-07-29T16:50:27.443Z,26.80
2022-07-29T16:55:49.292Z,26.80
2022-07-29T17:01:11.193Z,26.60
2022-07-29T17:06:33.096Z,26.50
2022-07-29T17:11:55.308Z,26.50
2022-07-29T17:17:20.832Z,26.40
2022-07-29T17:22:59.020Z,26.10
2022-07-29T17:28:20.845Z,25.90
2022-07-29T17:33:42.690Z,25.70
2022-07-29T17:39:04.567Z,25.60
2022-07-29T17:44:26.488Z,25.40
2022-07-29T17:49:48.314Z,25.20
2022-07-29T17:55:10.204Z,25.10
2022-07-29T18:00:32.096Z,25.00
2022-07-29T18:05:53.951Z,24.70
2022-07-29T18:11:15.801Z,24.60
2022-07-29T18:16:37.674Z,24.50
2022-07-29T18:22:04.898Z,24.40
2022-07-29T18:27:27.313Z,24.30
2022-07-29T18:33:18.265Z,24.20
2022-07-29T18:38:31.214Z,24.00
2022-07-29T18:43:53.036Z,23.80
2022-07-29T18:49:16.499Z,23.70
2022-07-29T18:54:38.385Z,23.50
2022-07-29T19:00:00.220Z,23.30
2022-07-29T19:05:22.045Z,23.20
2022-07-29T19:10:43.875Z,23.00
2022-07-29T19:16:05.805Z,22.90
2022-07-29T19:21:27.711Z,22.70
2022-07-29T19:26:49.544Z,22.60
2022-07-29T19:32:11.387Z,22.40
2022-07-29T19:37:33.206Z,22.20
2022-07-29T19:42:55.060Z,22.20
2022-07-29T19:48:16.894Z,22.10
2022-07-29T19:53:38.726Z,22.00
2022-07-29T19:59:00.545Z,21.90
2022-07-29T20:04:23.929Z,21.70
2022-07-29T20:09:45.994Z,21.50
2022-07-29T20:15:07.827Z,21.40
2022-07-29T20:20:30.557Z,21.30
2022-07-29T20:25:52.461Z,21.20
2022-07-29T20:31:16.074Z,21.00
2022-07-29T20:36:38.025Z,20.80
2022-07-29T20:41:59.858Z,20.70
2022-07-29T20:47:21.693Z,20.70
2022-07-29T20:52:43.603Z,20.70
2022-07-29T20:58:05.450Z,20.70
2022-07-29T21:03:27.308Z,20.70
2022-07-29T21:08:49.123Z,20.70
2022-07-29T21:14:10.996Z,20.70
2022-07-29T21:19:32.857Z,20.70
2022-07-29T21:24:54.698Z,20.50
2022-07-29T21:30:16.530Z,20.40
2022-07-29T21:36:14.941Z,20.40
2022-07-29T21:41:20.204Z,20.20
2022-07-29T21:46:42.045Z,20.10
2022-07-29T21:52:03.897Z,19.90
2022-07-29T21:57:25.750Z,19.80
2022-07-29T22:02:47.562Z,19.60
2022-07-29T22:08:09.385Z,19.50
2022-07-29T22:13:31.243Z,19.40
2022-07-29T22:18:53.069Z,19.20
2022-07-29T22:24:14.913Z,19.10
2022-07-29T22:29:36.732Z,19.00
2022-07-29T22:34:58.567Z,18.80
2022-07-29T22:40:20.396Z,18.80
2022-07-29T22:45:42.278Z,18.80
2022-07-29T22:51:04.140Z,18.70
2022-07-29T22:56:25.951Z,18.70
2022-07-29T23:01:47.861Z,18.70
2022-07-29T23:07:09.717Z,18.70
2022-07-29T23:12:31.533Z,18.70
2022-07-29T23:17:53.367Z,18.70
2022-07-29T23:23:15.192Z,18.70
2022-07-29T23:28:37.010Z,18.70
2022-07-29T23:33:58.824Z,18.60
2022-07-29T23:39:20.653Z,18.50
2022-07-29T23:44:42.507Z,18.50
2022-07-29T23:50:04.343Z,18.50
2022-07-29T23:55:37.638Z,18.50
